createdAt,value
2023-03-28T00:02:42.374Z,1.38
2023-03-28T00:05:49.320Z,0.40
2023-03-28T00:08:56.153Z,0.70
2023-03-28T00:12:02.130Z,1.02
2023-03-28T00:15:06.611Z,0.95
2023-03-28T00:18:11.624Z,0.50
2023-03-28T00:21:23.999Z,0.82
2023-03-28T00:24:39.108Z,0.47
2023-03-28T00:27:44.901Z,0.68
2023-03-28T00:30:51.772Z,0.85
2023-03-28T00:34:10.439Z,0.85
2023-03-28T00:37:21.017Z,0.93
2023-03-28T00:40:39.207Z,0.65
2023-03-28T00:43:45.437Z,1.00
2023-03-28T00:47:01.313Z,0.55
2023-03-28T00:50:06.925Z,0.73
2023-03-28T00:53:18.429Z,0.77
2023-03-28T00:56:26.914Z,0.52
2023-03-28T00:59:41.002Z,0.50
2023-03-28T01:06:27.396Z,0.52
2023-03-28T01:13:09.843Z,0.68
2023-03-28T01:16:23.864Z,0.57
2023-03-28T01:19:42.612Z,0.57
2023-03-28T01:23:14.055Z,0.60
2023-03-28T01:26:33.859Z,0.77
2023-03-28T01:30:02.555Z,0.50
2023-03-28T01:33:50.098Z,0.55
2023-03-28T01:37:23.709Z,0.77
2023-03-28T01:40:36.454Z,0.55
2023-03-28T01:43:45.876Z,0.40
2023-03-28T01:46:57.167Z,0.60
2023-03-28T01:50:09.874Z,0.52
2023-03-28T01:53:23.239Z,0.43
2023-03-28T01:56:31.736Z,0.52
2023-03-28T01:59:45.907Z,0.52
2023-03-28T02:03:14.573Z,0.70
2023-03-28T02:06:39.540Z,0.40
2023-03-28T02:09:51.389Z,0.93
2023-03-28T02:13:21.122Z,0.52
2023-03-28T02:16:39.105Z,0.52
2023-03-28T02:20:08.451Z,0.40
2023-03-28T02:23:32.530Z,0.60
2023-03-28T02:27:15.055Z,0.50
2023-03-28T02:30:25.598Z,0.73
2023-03-28T02:33:38.747Z,0.60
2023-03-28T02:36:48.507Z,0.73
2023-03-28T02:40:15.159Z,0.80
2023-03-28T02:43:38.469Z,0.50
2023-03-28T02:47:01.092Z,0.50
2023-03-28T02:50:15.075Z,0.40
2023-03-28T02:53:27.214Z,0.60
2023-03-28T02:56:39.377Z,0.40
2023-03-28T02:59:53.778Z,0.60
2023-03-28T03:03:00.261Z,0.57
2023-03-28T03:06:04.078Z,0.40
2023-03-28T03:09:08.598Z,0.50
2023-03-28T03:12:18.268Z,0.55
2023-03-28T03:15:23.138Z,0.38
2023-03-28T03:18:32.424Z,0.55
2023-03-28T03:21:38.796Z,0.60
2023-03-28T03:24:43.987Z,0.68
2023-03-28T03:27:48.213Z,0.50
2023-03-28T03:30:54.341Z,0.35
2023-03-28T03:34:05.114Z,0.43
2023-03-28T03:37:14.960Z,0.50
2023-03-28T03:40:19.273Z,0.50
2023-03-28T03:43:32.199Z,0.70
2023-03-28T03:46:39.333Z,0.57
2023-03-28T03:49:44.264Z,0.43
2023-03-28T03:52:48.840Z,0.45
2023-03-28T03:55:52.683Z,0.43
2023-03-28T03:58:57.190Z,0.40
2023-03-28T04:02:06.749Z,0.50
2023-03-28T04:05:16.723Z,0.70
2023-03-28T04:08:25.779Z,0.52
2023-03-28T04:11:30.053Z,0.50
2023-03-28T04:14:40.654Z,0.60
2023-03-28T04:18:06.825Z,0.50
2023-03-28T04:21:20.382Z,0.52
2023-03-28T04:24:25.357Z,0.50
2023-03-28T04:27:48.853Z,0.50
2023-03-28T04:30:55.619Z,0.50
2023-03-28T04:34:39.152Z,0.60
2023-03-28T04:37:58.853Z,0.70
2023-03-28T04:41:40.920Z,0.70
2023-03-28T04:45:09.901Z,0.75
2023-03-28T04:48:18.226Z,0.70
2023-03-28T04:51:31.853Z,0.60
2023-03-28T04:54:35.281Z,0.50
2023-03-28T04:57:41.993Z,0.52
2023-03-28T05:00:55.912Z,0.73
2023-03-28T05:04:19.721Z,0.75
2023-03-28T05:07:25.296Z,0.70
2023-03-28T05:10:35.729Z,0.40
2023-03-28T05:13:54.756Z,0.57
2023-03-28T05:17:14.252Z,1.08
2023-03-28T05:20:46.883Z,0.50
2023-03-28T05:23:52.531Z,0.47
2023-03-28T05:27:04.594Z,0.52
2023-03-28T05:30:09.572Z,0.43
2023-03-28T05:33:21.601Z,0.50
2023-03-28T05:36:30.067Z,0.60
2023-03-28T05:39:35.741Z,0.50
2023-03-28T05:42:41.580Z,0.70
2023-03-28T05:45:49.785Z,0.75
2023-03-28T05:48:58.756Z,0.90
2023-03-28T05:52:02.196Z,0.57
2023-03-28T05:55:08.285Z,0.80
2023-03-28T05:58:11.709Z,0.90
2023-03-28T06:01:18.180Z,0.80
2023-03-28T06:04:27.951Z,0.63
2023-03-28T06:07:42.065Z,0.95
2023-03-28T06:10:49.434Z,0.85
2023-03-28T06:14:05.169Z,0.88
2023-03-28T06:17:08.847Z,0.85
2023-03-28T06:20:23.627Z,1.52
2023-03-28T06:23:30.722Z,1.23
2023-03-28T06:26:40.333Z,1.30
2023-03-28T06:29:45.973Z,1.00
2023-03-28T06:32:50.071Z,0.80
2023-03-28T06:35:53.719Z,0.95
2023-03-28T06:38:58.338Z,1.38
2023-03-28T06:42:09.139Z,0.90
2023-03-28T06:45:22.925Z,0.90
2023-03-28T06:48:55.482Z,0.73
2023-03-28T06:52:04.590Z,1.17
2023-03-28T06:55:08.508Z,1.17
2023-03-28T06:58:13.460Z,1.30
2023-03-28T07:01:26.525Z,1.00
2023-03-28T07:04:41.749Z,0.95
2023-03-28T07:07:47.128Z,0.98
2023-03-28T07:10:50.827Z,0.95
2023-03-28T07:13:55.872Z,0.77
2023-03-28T07:17:01.649Z,1.35
2023-03-28T07:20:08.558Z,0.98
2023-03-28T07:23:16.321Z,1.00
2023-03-28T07:26:28.848Z,1.08
2023-03-28T07:29:39.750Z,0.90
2023-03-28T07:32:54.589Z,1.33
2023-03-28T07:36:09.066Z,1.02
2023-03-28T07:39:13.089Z,0.90
2023-03-28T07:42:17.061Z,1.23
2023-03-28T07:45:22.055Z,0.85
2023-03-28T07:48:41.198Z,1.30
2023-03-28T07:51:45.185Z,1.17
2023-03-28T07:54:53.966Z,1.00
2023-03-28T07:58:03.851Z,1.40
2023-03-28T08:01:18.587Z,1.25
2023-03-28T08:04:25.804Z,1.25
2023-03-28T08:07:46.213Z,0.90
2023-03-28T08:10:54.080Z,1.15
2023-03-28T08:14:00.885Z,1.10
2023-03-28T08:17:12.745Z,1.48
2023-03-28T08:20:19.815Z,1.08
2023-03-28T08:23:39.602Z,1.08
2023-03-28T08:27:05.903Z,1.05
2023-03-28T08:30:13.629Z,1.00
2023-03-28T08:33:43.153Z,1.10
2023-03-28T08:36:47.487Z,1.25
2023-03-28T08:40:01.539Z,1.02
2023-03-28T08:43:25.876Z,0.93
2023-03-28T08:46:32.473Z,1.17
2023-03-28T08:49:43.082Z,1.15
2023-03-28T08:52:46.908Z,1.17
2023-03-28T08:55:53.499Z,0.80
2023-03-28T08:59:04.639Z,1.00
2023-03-28T09:02:14.221Z,1.10
2023-03-28T09:05:23.977Z,0.98
2023-03-28T09:08:53.954Z,0.80
2023-03-28T09:12:08.635Z,0.82
2023-03-28T09:15:20.813Z,0.68
2023-03-28T09:18:38.128Z,0.70
2023-03-28T09:21:49.719Z,0.88
2023-03-28T09:24:57.884Z,0.60
2023-03-28T09:28:09.751Z,0.80
2023-03-28T09:31:16.202Z,0.75
2023-03-28T09:34:22.993Z,0.70
2023-03-28T09:37:33.790Z,0.70
2023-03-28T09:40:38.597Z,0.70
2023-03-28T09:44:13.531Z,0.80
2023-03-28T09:47:16.952Z,0.70
2023-03-28T09:50:25.800Z,0.80
2023-03-28T09:53:36.209Z,0.70
2023-03-28T09:56:41.386Z,0.85
2023-03-28T10:00:08.140Z,0.65
2023-03-28T10:03:32.280Z,0.60
2023-03-28T10:06:40.084Z,0.77
2023-03-28T10:09:50.761Z,1.00
2023-03-28T10:12:58.403Z,1.20
2023-03-28T10:16:03.468Z,0.98
2023-03-28T10:19:42.127Z,0.80
2023-03-28T10:22:59.979Z,0.70
2023-03-28T10:26:06.343Z,0.80
2023-03-28T10:29:09.994Z,0.90
2023-03-28T10:32:15.535Z,0.82
2023-03-28T10:35:28.193Z,0.60
2023-03-28T10:38:49.044Z,0.70
2023-03-28T10:42:08.418Z,0.60
2023-03-28T10:45:36.561Z,0.90
2023-03-28T10:48:43.515Z,1.25
2023-03-28T10:51:48.478Z,0.47
2023-03-28T10:54:58.725Z,0.77
2023-03-28T10:58:23.200Z,0.82
2023-03-28T11:01:34.200Z,0.82
2023-03-28T11:04:55.838Z,0.75
2023-03-28T11:08:05.167Z,0.65
2023-03-28T11:11:37.967Z,0.68
2023-03-28T11:14:53.509Z,0.70
2023-03-28T11:18:04.142Z,0.90
2023-03-28T11:21:18.331Z,0.75
2023-03-28T11:24:26.693Z,0.90
2023-03-28T11:27:53.512Z,0.80
2023-03-28T11:31:07.683Z,0.95
2023-03-28T11:34:20.189Z,0.80
2023-03-28T11:37:35.256Z,0.80
2023-03-28T11:40:44.695Z,0.68
2023-03-28T11:43:57.749Z,0.93
2023-03-28T11:47:07.426Z,0.90
2023-03-28T11:50:18.479Z,0.88
2023-03-28T11:53:43.099Z,0.75
2023-03-28T11:56:50.313Z,1.08
2023-03-28T12:03:44.593Z,0.93
2023-03-28T12:07:02.281Z,1.00
2023-03-28T12:10:11.169Z,1.10
2023-03-28T12:13:16.944Z,1.10
2023-03-28T12:16:34.817Z,0.90
2023-03-28T12:19:40.963Z,0.80
2023-03-28T12:22:52.316Z,0.77
2023-03-28T12:26:18.087Z,1.08
2023-03-28T12:29:25.595Z,0.70
2023-03-28T12:32:35.941Z,0.93
2023-03-28T12:35:48.049Z,0.60
2023-03-28T12:38:57.865Z,0.82
2023-03-28T12:42:09.638Z,0.73
2023-03-28T12:45:19.471Z,0.90
2023-03-28T12:48:35.878Z,0.70
2023-03-28T12:51:43.072Z,0.50
2023-03-28T12:55:01.144Z,0.45
2023-03-28T12:58:15.909Z,0.88
2023-03-28T13:02:21.347Z,1.00
2023-03-28T13:06:16.995Z,0.60
2023-03-28T13:09:36.862Z,0.90
2023-03-28T13:12:52.819Z,0.90
2023-03-28T13:15:59.079Z,0.57
2023-03-28T13:19:12.624Z,0.82
2023-03-28T13:22:34.571Z,0.98
2023-03-28T13:25:39.904Z,0.93
2023-03-28T13:28:47.490Z,0.82
2023-03-28T13:31:51.265Z,0.60
2023-03-28T13:34:56.648Z,0.63
2023-03-28T13:38:14.866Z,0.73
2023-03-28T13:41:35.500Z,0.70
2023-03-28T13:44:42.011Z,1.20
2023-03-28T13:47:46.668Z,0.75
2023-03-28T13:50:56.331Z,0.65
2023-03-28T13:54:00.130Z,0.80
2023-03-28T13:57:08.291Z,0.80
2023-03-28T14:00:17.375Z,0.82
2023-03-28T14:03:23.615Z,0.68
2023-03-28T14:06:28.198Z,1.10
2023-03-28T14:09:36.923Z,1.00
2023-03-28T14:12:41.902Z,0.73
2023-03-28T14:15:46.093Z,0.95
2023-03-28T14:19:21.632Z,0.95
2023-03-28T14:23:00.325Z,0.60
2023-03-28T14:26:08.362Z,0.43
2023-03-28T14:29:14.545Z,0.90
2023-03-28T14:32:24.083Z,0.93
2023-03-28T14:35:28.592Z,0.60
2023-03-28T14:38:33.527Z,0.60
2023-03-28T14:41:37.862Z,1.10
2023-03-28T14:44:44.220Z,1.23
2023-03-28T14:47:48.395Z,1.20
2023-03-28T14:50:53.815Z,1.77
2023-03-28T14:53:57.896Z,0.88
2023-03-28T14:57:01.788Z,0.85
2023-03-28T15:00:12.673Z,1.60
2023-03-28T15:03:17.570Z,0.90
2023-03-28T15:06:23.119Z,1.00
2023-03-28T15:09:32.211Z,0.75
2023-03-28T15:12:37.734Z,1.35
2023-03-28T15:15:45.940Z,1.00
2023-03-28T15:18:55.783Z,1.50
2023-03-28T15:22:04.195Z,1.25
2023-03-28T15:25:16.889Z,3.88
2023-03-28T15:28:25.122Z,5.05
2023-03-28T15:31:37.283Z,1.95
2023-03-28T15:34:45.434Z,1.60
2023-03-28T15:37:49.186Z,1.38
2023-03-28T15:40:53.946Z,1.38
2023-03-28T15:44:11.583Z,0.98
2023-03-28T15:47:22.489Z,1.17
2023-03-28T15:50:33.311Z,1.25
2023-03-28T15:53:38.625Z,0.80
2023-03-28T15:56:45.270Z,1.77
2023-03-28T15:59:51.101Z,1.83
2023-03-28T16:03:16.031Z,1.35
2023-03-28T16:06:32.172Z,1.27
2023-03-28T16:09:38.831Z,1.30
2023-03-28T16:12:42.832Z,0.93
2023-03-28T16:16:07.315Z,1.35
2023-03-28T16:19:29.682Z,1.88
2023-03-28T16:22:36.580Z,1.20
2023-03-28T16:25:40.559Z,1.30
2023-03-28T16:28:44.679Z,2.25
2023-03-28T16:31:49.258Z,2.13
2023-03-28T16:34:55.223Z,1.58
2023-03-28T16:37:58.868Z,1.10
2023-03-28T16:41:05.708Z,1.77
2023-03-28T16:44:09.304Z,2.95
2023-03-28T16:47:18.213Z,1.95
2023-03-28T16:50:25.111Z,2.40
2023-03-28T16:53:28.696Z,1.73
2023-03-28T16:56:34.762Z,2.22
2023-03-28T16:59:42.091Z,1.50
2023-03-28T17:02:49.307Z,1.50
2023-03-28T17:06:02.739Z,2.03
2023-03-28T17:09:06.779Z,1.27
2023-03-28T17:12:16.385Z,1.50
2023-03-28T17:15:22.854Z,2.42
2023-03-28T17:18:29.714Z,1.77
2023-03-28T17:21:38.268Z,4.22
2023-03-28T17:24:41.699Z,2.10
2023-03-28T17:27:45.189Z,1.67
2023-03-28T17:30:48.606Z,1.30
2023-03-28T17:33:52.328Z,1.65
2023-03-28T17:36:57.182Z,1.40
2023-03-28T17:40:00.630Z,1.73
2023-03-28T17:43:07.782Z,2.05
2023-03-28T17:50:08.430Z,3.63
2023-03-28T17:53:14.193Z,3.53
2023-03-28T17:56:18.119Z,2.50
2023-03-28T17:59:22.240Z,2.63
2023-03-28T18:02:26.097Z,1.73
2023-03-28T18:05:49.359Z,1.65
2023-03-28T18:08:57.563Z,1.52
2023-03-28T18:12:03.697Z,1.55
2023-03-28T18:15:08.070Z,1.40
2023-03-28T18:18:14.982Z,2.15
2023-03-28T18:21:23.034Z,1.70
2023-03-28T18:24:31.884Z,2.72
2023-03-28T18:27:38.323Z,4.22
2023-03-28T18:30:44.389Z,4.93
2023-03-28T18:33:48.044Z,5.40
2023-03-28T18:36:53.474Z,2.85
2023-03-28T18:39:58.708Z,2.40
2023-03-28T18:43:02.717Z,2.10
2023-03-28T18:46:10.993Z,2.20
2023-03-28T18:49:16.510Z,2.55
2023-03-28T18:52:28.318Z,2.20
2023-03-28T18:55:36.276Z,2.10
2023-03-28T18:58:46.241Z,6.47
2023-03-28T19:01:56.372Z,2.78
2023-03-28T19:05:01.362Z,2.03
2023-03-28T19:08:10.148Z,2.08
2023-03-28T19:11:22.537Z,2.70
2023-03-28T19:14:32.006Z,2.30
2023-03-28T19:17:46.559Z,1.92
2023-03-28T19:20:56.202Z,2.28
2023-03-28T19:24:02.323Z,2.33
2023-03-28T19:27:07.500Z,2.78
2023-03-28T19:30:11.179Z,3.28
2023-03-28T19:33:14.852Z,2.97
2023-03-28T19:36:18.278Z,2.92
2023-03-28T19:39:22.036Z,3.10
2023-03-28T19:42:28.195Z,2.63
2023-03-28T19:45:32.002Z,3.20
2023-03-28T19:48:36.000Z,3.50
2023-03-28T19:51:39.752Z,3.03
2023-03-28T19:54:43.365Z,2.75
2023-03-28T19:57:48.227Z,2.75
2023-03-28T20:00:51.802Z,2.45
2023-03-28T20:03:56.123Z,2.88
2023-03-28T20:06:59.670Z,3.20
2023-03-28T20:10:03.173Z,3.15
2023-03-28T20:13:07.925Z,2.47
2023-03-28T20:16:12.330Z,2.10
2023-03-28T20:19:17.861Z,1.98
2023-03-28T20:22:24.386Z,1.80
2023-03-28T20:25:27.809Z,4.03
2023-03-28T20:28:33.753Z,6.65
2023-03-28T20:31:37.276Z,4.10
2023-03-28T20:34:40.676Z,2.80
2023-03-28T20:37:43.964Z,2.17
2023-03-28T20:40:47.342Z,1.70
2023-03-28T20:43:53.081Z,1.45
2023-03-28T20:46:56.393Z,1.73
2023-03-28T20:50:05.537Z,2.13
2023-03-28T20:53:09.049Z,1.45
2023-03-28T20:56:13.258Z,2.00
2023-03-28T20:59:18.398Z,1.45
2023-03-28T21:02:23.084Z,1.48
2023-03-28T21:05:27.368Z,2.00
2023-03-28T21:08:32.112Z,2.15
2023-03-28T21:11:36.829Z,2.20
2023-03-28T21:14:41.695Z,1.42
2023-03-28T21:17:48.985Z,1.70
2023-03-28T21:20:52.559Z,1.70
2023-03-28T21:23:55.894Z,1.55
2023-03-28T21:26:59.327Z,1.45
2023-03-28T21:30:07.568Z,1.77
2023-03-28T21:33:15.954Z,1.30
2023-03-28T21:36:20.329Z,1.48
2023-03-28T21:39:24.191Z,1.30
2023-03-28T21:42:27.817Z,1.23
2023-03-28T21:45:32.762Z,1.17
2023-03-28T21:48:36.732Z,1.63
2023-03-28T21:51:40.166Z,1.38
2023-03-28T21:54:43.483Z,2.13
2023-03-28T21:57:46.874Z,1.40
2023-03-28T22:00:51.594Z,1.70
2023-03-28T22:03:55.085Z,1.40
2023-03-28T22:06:58.423Z,1.45
2023-03-28T22:10:02.435Z,1.35
2023-03-28T22:13:07.726Z,1.50
2023-03-28T22:16:14.112Z,1.50
2023-03-28T22:19:18.688Z,1.17
2023-03-28T22:22:28.043Z,1.30
2023-03-28T22:25:38.325Z,1.48
2023-03-28T22:28:42.430Z,1.55
2023-03-28T22:31:47.356Z,1.20
2023-03-28T22:34:50.969Z,1.50
2023-03-28T22:37:54.374Z,1.40
2023-03-28T22:40:57.670Z,1.48
2023-03-28T22:44:01.108Z,1.35
2023-03-28T22:47:05.836Z,1.33
2023-03-28T22:50:13.855Z,1.58
2023-03-28T22:53:18.079Z,1.50
2023-03-28T22:56:23.266Z,1.50
2023-03-28T22:59:27.052Z,1.33
2023-03-28T23:02:31.974Z,1.67
2023-03-28T23:05:35.463Z,1.27
2023-03-28T23:08:38.986Z,1.10
2023-03-28T23:11:42.330Z,1.23
2023-03-28T23:14:46.566Z,1.70
2023-03-28T23:17:52.012Z,1.45
2023-03-28T23:20:55.384Z,1.15
2023-03-28T23:23:58.761Z,1.77
2023-03-28T23:27:02.196Z,1.50
2023-03-28T23:30:06.062Z,1.20
2023-03-28T23:33:11.320Z,1.08
2023-03-28T23:36:14.982Z,1.75
2023-03-28T23:39:18.507Z,1.30
2023-03-28T23:42:22.398Z,1.10
2023-03-28T23:45:25.813Z,1.88
2023-03-28T23:48:30.828Z,1.42
2023-03-28T23:51:34.125Z,1.25
2023-03-28T23:54:38.223Z,1.50
2023-03-28T23:57:41.556Z,1.35
